Alexander Mills, North Carolina
Current Conditions -  °F | °C
As of 10:15 AM on Wednesday 22 Oct 2014 (Local Time) from KFQD Reporting Station
Clear Clear  
Wind Chill: 55°   Ceiling: Unl
Heat Index: 55°   Visibility: 10mi
Dew Point: 34°   Wind: 13mph
Humidity: 46%   Direction: 360°N
Pressure: 30.1"   Gusts: 26mph
Location:  35.27°N, 81.8676°W
Report Text: KFQD 221415Z AUTO 36011G23KT 10SM CLR 13/01 A3010 RMK AO2 T01260013
Loading
Personal Weather Stations






























Interactive Weather Map
Tropical Storm Tracking
New forecast layout! Learn more

10-Day Weather Forecast

Advertisements
Track Severe Weather on mobile